Ana Sayfa
METAR-TAF:

METAR-TAF

Havaalanları :

Garner Field

Uvalde, Teksas, Amerika Birleşik Devletleri

Enlem: 29-12-40N, Boylam: 099-44-36W, yükseklik: 287 m

Güncel hava durumu gözlemi

Rapor saat 07:35 UTC de 10 dakika önce yapıldı.
Rüzgar kuzeydoğudan 5 kt
Sıcaklık 22°C
Nem 60%
Basınç 1019 hPa
Görüş mesafesi: 16.1 km
Açık gökyüzü

METAR: KUVA 240735Z AUTO 04005KT 10SM CLR 22/14 A3010 RMK AO2 T02150143

Saat: 02:45 (07:45 UTC)


TAF: eksik

4.000'den fazla havaalanı için hava durumu gözlemleri ve tahminleri (METAR ve TAF raporları).

Kullanılabilir istasyonlar harita üzerinde sarı ve kırmızı noktalarla gösterilir.

İstasyonun adını görmek için fareyi noktanın üzerinde gezdirin.

Sonrasında hava gözlem ve tahminlerini görmek için tıklayın.

Haritayı değiştirmek için: yaklaştırmak için siyah artı işaretli yeşil düğmeye ve uzaklaştırmak için de eksi işaretli düğmeye hızla tıklayın; bitişik haritalar için yeşil okları kullanın.


METAR-TAF: